sensor_id;sensor_type;location;lat;lon;timestamp;P1;durP1;ratioP1;P2;durP2;ratioP2
47483;SDS011;54076;50.322;18.650;2024-02-14T00:02:31;52.20;;;19.40;;
47483;SDS011;54076;50.322;18.650;2024-02-14T00:07:34;50.10;;;19.00;;
47483;SDS011;54076;50.322;18.650;2024-02-14T00:12:35;51.60;;;19.00;;
47483;SDS011;54076;50.322;18.650;2024-02-14T00:17:37;53.80;;;18.50;;
47483;SDS011;54076;50.322;18.650;2024-02-14T00:22:39;43.90;;;17.40;;
47483;SDS011;54076;50.322;18.650;2024-02-14T00:27:40;41.70;;;17.70;;
47483;SDS011;54076;50.322;18.650;2024-02-14T00:32:41;47.70;;;18.00;;
47483;SDS011;54076;50.322;18.650;2024-02-14T00:37:42;44.90;;;18.20;;
47483;SDS011;54076;50.322;18.650;2024-02-14T00:42:43;42.70;;;17.90;;
47483;SDS011;54076;50.322;18.650;2024-02-14T00:47:44;46.90;;;17.60;;
47483;SDS011;54076;50.322;18.650;2024-02-14T00:52:45;47.60;;;18.50;;
47483;SDS011;54076;50.322;18.650;2024-02-14T00:57:45;48.60;;;19.70;;
47483;SDS011;54076;50.322;18.650;2024-02-14T01:02:46;45.90;;;17.80;;
47483;SDS011;54076;50.322;18.650;2024-02-14T01:07:47;47.40;;;19.40;;
47483;SDS011;54076;50.322;18.650;2024-02-14T01:12:48;53.70;;;20.00;;
47483;SDS011;54076;50.322;18.650;2024-02-14T01:17:49;61.50;;;21.40;;
47483;SDS011;54076;50.322;18.650;2024-02-14T01:22:50;60.80;;;21.10;;
47483;SDS011;54076;50.322;18.650;2024-02-14T01:27:51;59.00;;;22.20;;
47483;SDS011;54076;50.322;18.650;2024-02-14T01:32:53;59.90;;;23.50;;
47483;SDS011;54076;50.322;18.650;2024-02-14T01:37:54;50.70;;;18.70;;
47483;SDS011;54076;50.322;18.650;2024-02-14T01:42:55;60.30;;;21.30;;
47483;SDS011;54076;50.322;18.650;2024-02-14T01:47:57;64.10;;;23.50;;
47483;SDS011;54076;50.322;18.650;2024-02-14T01:52:58;70.30;;;25.80;;
47483;SDS011;54076;50.322;18.650;2024-02-14T01:58:01;61.10;;;24.10;;
47483;SDS011;54076;50.322;18.650;2024-02-14T02:03:04;82.60;;;27.30;;
47483;SDS011;54076;50.322;18.650;2024-02-14T02:08:07;57.00;;;22.50;;
47483;SDS011;54076;50.322;18.650;2024-02-14T02:13:10;65.20;;;24.40;;
47483;SDS011;54076;50.322;18.650;2024-02-14T02:18:11;76.70;;;27.80;;
47483;SDS011;54076;50.322;18.650;2024-02-14T02:23:12;65.70;;;24.50;;
47483;SDS011;54076;50.322;18.650;2024-02-14T02:28:15;62.90;;;24.40;;
47483;SDS011;54076;50.322;18.650;2024-02-14T02:33:16;66.10;;;25.60;;
47483;SDS011;54076;50.322;18.650;2024-02-14T02:38:17;82.40;;;28.80;;
47483;SDS011;54076;50.322;18.650;2024-02-14T02:43:20;87.90;;;30.70;;
47483;SDS011;54076;50.322;18.650;2024-02-14T02:48:22;80.40;;;29.00;;
47483;SDS011;54076;50.322;18.650;2024-02-14T02:53:23;75.40;;;28.10;;
47483;SDS011;54076;50.322;18.650;2024-02-14T02:58:24;84.40;;;31.60;;
47483;SDS011;54076;50.322;18.650;2024-02-14T03:03:25;80.90;;;27.80;;
47483;SDS011;54076;50.322;18.650;2024-02-14T03:08:28;75.60;;;28.50;;
47483;SDS011;54076;50.322;18.650;2024-02-14T03:13:31;85.10;;;29.60;;
47483;SDS011;54076;50.322;18.650;2024-02-14T03:18:32;88.50;;;30.30;;
47483;SDS011;54076;50.322;18.650;2024-02-14T03:23:33;100.80;;;33.40;;
47483;SDS011;54076;50.322;18.650;2024-02-14T03:28:34;93.40;;;32.20;;
47483;SDS011;54076;50.322;18.650;2024-02-14T03:33:35;88.10;;;33.80;;
47483;SDS011;54076;50.322;18.650;2024-02-14T03:38:36;87.80;;;30.70;;
47483;SDS011;54076;50.322;18.650;2024-02-14T03:43:36;102.70;;;34.10;;
47483;SDS011;54076;50.322;18.650;2024-02-14T03:48:37;97.70;;;34.30;;
47483;SDS011;54076;50.322;18.650;2024-02-14T03:53:39;103.30;;;34.60;;
47483;SDS011;54076;50.322;18.650;2024-02-14T03:58:39;108.50;;;35.90;;
47483;SDS011;54076;50.322;18.650;2024-02-14T04:03:40;117.60;;;38.40;;
47483;SDS011;54076;50.322;18.650;2024-02-14T04:08:41;112.40;;;38.10;;
47483;SDS011;54076;50.322;18.650;2024-02-14T04:13:42;109.30;;;37.40;;
47483;SDS011;54076;50.322;18.650;2024-02-14T04:18:43;117.80;;;39.50;;
47483;SDS011;54076;50.322;18.650;2024-02-14T04:23:44;109.80;;;37.90;;
47483;SDS011;54076;50.322;18.650;2024-02-14T04:28:45;119.00;;;39.00;;
47483;SDS011;54076;50.322;18.650;2024-02-14T04:33:46;115.30;;;38.70;;
47483;SDS011;54076;50.322;18.650;2024-02-14T04:38:52;108.60;;;37.80;;
47483;SDS011;54076;50.322;18.650;2024-02-14T04:43:54;117.30;;;38.90;;
47483;SDS011;54076;50.322;18.650;2024-02-14T04:48:55;113.40;;;38.20;;
47483;SDS011;54076;50.322;18.650;2024-02-14T04:53:57;115.00;;;39.00;;
47483;SDS011;54076;50.322;18.650;2024-02-14T04:59:01;104.70;;;36.70;;
47483;SDS011;54076;50.322;18.650;2024-02-14T05:04:03;114.70;;;38.40;;
47483;SDS011;54076;50.322;18.650;2024-02-14T05:09:05;104.10;;;37.90;;
47483;SDS011;54076;50.322;18.650;2024-02-14T05:14:06;102.90;;;36.50;;
47483;SDS011;54076;50.322;18.650;2024-02-14T05:19:07;104.90;;;36.30;;
47483;SDS011;54076;50.322;18.650;2024-02-14T05:24:08;110.30;;;38.50;;
47483;SDS011;54076;50.322;18.650;2024-02-14T05:29:09;104.70;;;35.90;;
47483;SDS011;54076;50.322;18.650;2024-02-14T05:34:10;106.90;;;36.00;;
47483;SDS011;54076;50.322;18.650;2024-02-14T05:39:12;100.10;;;36.70;;
47483;SDS011;54076;50.322;18.650;2024-02-14T05:44:14;97.50;;;36.50;;
47483;SDS011;54076;50.322;18.650;2024-02-14T05:49:15;100.10;;;34.90;;
47483;SDS011;54076;50.322;18.650;2024-02-14T05:54:16;102.10;;;35.80;;
47483;SDS011;54076;50.322;18.650;2024-02-14T05:59:17;89.40;;;33.30;;
47483;SDS011;54076;50.322;18.650;2024-02-14T06:04:18;97.90;;;34.80;;
47483;SDS011;54076;50.322;18.650;2024-02-14T06:09:19;90.30;;;34.20;;
47483;SDS011;54076;50.322;18.650;2024-02-14T06:14:20;92.00;;;33.80;;
47483;SDS011;54076;50.322;18.650;2024-02-14T06:19:21;100.60;;;35.30;;
47483;SDS011;54076;50.322;18.650;2024-02-14T06:24:22;102.40;;;34.10;;
47483;SDS011;54076;50.322;18.650;2024-02-14T06:29:23;106.20;;;37.20;;
47483;SDS011;54076;50.322;18.650;2024-02-14T06:34:24;91.70;;;33.20;;
47483;SDS011;54076;50.322;18.650;2024-02-14T06:39:26;91.30;;;35.60;;
47483;SDS011;54076;50.322;18.650;2024-02-14T06:44:27;103.90;;;36.40;;
47483;SDS011;54076;50.322;18.650;2024-02-14T06:49:28;109.70;;;37.60;;
47483;SDS011;54076;50.322;18.650;2024-02-14T06:54:29;89.70;;;34.40;;
47483;SDS011;54076;50.322;18.650;2024-02-14T06:59:30;99.50;;;35.10;;
47483;SDS011;54076;50.322;18.650;2024-02-14T07:04:31;92.00;;;34.80;;
47483;SDS011;54076;50.322;18.650;2024-02-14T07:09:32;92.80;;;32.90;;
47483;SDS011;54076;50.322;18.650;2024-02-14T07:14:36;84.70;;;32.50;;
47483;SDS011;54076;50.322;18.650;2024-02-14T07:19:37;90.70;;;33.80;;
47483;SDS011;54076;50.322;18.650;2024-02-14T07:24:39;86.10;;;32.20;;
47483;SDS011;54076;50.322;18.650;2024-02-14T07:29:40;77.80;;;30.20;;
47483;SDS011;54076;50.322;18.650;2024-02-14T07:34:41;87.80;;;30.40;;
47483;SDS011;54076;50.322;18.650;2024-02-14T07:39:42;87.00;;;31.30;;
47483;SDS011;54076;50.322;18.650;2024-02-14T07:44:43;73.90;;;29.00;;
47483;SDS011;54076;50.322;18.650;2024-02-14T07:49:44;69.50;;;28.20;;
47483;SDS011;54076;50.322;18.650;2024-02-14T07:54:44;80.00;;;30.20;;
47483;SDS011;54076;50.322;18.650;2024-02-14T07:59:45;70.40;;;28.50;;
47483;SDS011;54076;50.322;18.650;2024-02-14T08:04:46;72.20;;;26.60;;
47483;SDS011;54076;50.322;18.650;2024-02-14T08:09:47;53.40;;;23.30;;
47483;SDS011;54076;50.322;18.650;2024-02-14T08:14:48;49.80;;;21.60;;
47483;SDS011;54076;50.322;18.650;2024-02-14T08:19:49;52.70;;;21.30;;
47483;SDS011;54076;50.322;18.650;2024-02-14T08:24:50;45.50;;;20.20;;
47483;SDS011;54076;50.322;18.650;2024-02-14T08:29:51;48.40;;;19.50;;
47483;SDS011;54076;50.322;18.650;2024-02-14T08:34:52;45.00;;;19.50;;
47483;SDS011;54076;50.322;18.650;2024-02-14T08:39:53;47.40;;;18.70;;
47483;SDS011;54076;50.322;18.650;2024-02-14T08:44:54;44.10;;;18.30;;
47483;SDS011;54076;50.322;18.650;2024-02-14T08:49:55;42.20;;;16.70;;
47483;SDS011;54076;50.322;18.650;2024-02-14T08:54:56;35.60;;;16.50;;
47483;SDS011;54076;50.322;18.650;2024-02-14T08:59:57;34.30;;;15.90;;
47483;SDS011;54076;50.322;18.650;2024-02-14T09:04:58;36.20;;;15.90;;
47483;SDS011;54076;50.322;18.650;2024-02-14T09:09:59;37.00;;;15.90;;
47483;SDS011;54076;50.322;18.650;2024-02-14T09:15:00;31.80;;;15.00;;
47483;SDS011;54076;50.322;18.650;2024-02-14T09:20:02;29.30;;;13.60;;
47483;SDS011;54076;50.322;18.650;2024-02-14T09:25:04;31.50;;;13.50;;
47483;SDS011;54076;50.322;18.650;2024-02-14T09:30:07;30.80;;;12.90;;
47483;SDS011;54076;50.322;18.650;2024-02-14T09:35:08;27.10;;;12.60;;
47483;SDS011;54076;50.322;18.650;2024-02-14T09:40:09;29.60;;;12.80;;
47483;SDS011;54076;50.322;18.650;2024-02-14T09:45:14;25.00;;;11.10;;
47483;SDS011;54076;50.322;18.650;2024-02-14T09:50:15;24.80;;;11.10;;
47483;SDS011;54076;50.322;18.650;2024-02-14T09:55:18;21.20;;;9.80;;
47483;SDS011;54076;50.322;18.650;2024-02-14T10:00:19;24.30;;;10.40;;
47483;SDS011;54076;50.322;18.650;2024-02-14T10:05:22;21.50;;;9.50;;
47483;SDS011;54076;50.322;18.650;2024-02-14T10:10:24;20.10;;;9.00;;
47483;SDS011;54076;50.322;18.650;2024-02-14T10:15:25;22.60;;;8.50;;
47483;SDS011;54076;50.322;18.650;2024-02-14T10:20:26;17.70;;;7.80;;
47483;SDS011;54076;50.322;18.650;2024-02-14T10:25:27;17.70;;;8.70;;
47483;SDS011;54076;50.322;18.650;2024-02-14T10:30:28;18.20;;;7.70;;
47483;SDS011;54076;50.322;18.650;2024-02-14T10:35:30;14.60;;;7.30;;
47483;SDS011;54076;50.322;18.650;2024-02-14T10:40:32;13.40;;;7.00;;
47483;SDS011;54076;50.322;18.650;2024-02-14T10:45:35;17.00;;;7.10;;
47483;SDS011;54076;50.322;18.650;2024-02-14T10:50:41;15.90;;;6.60;;
47483;SDS011;54076;50.322;18.650;2024-02-14T10:55:46;13.60;;;6.30;;
47483;SDS011;54076;50.322;18.650;2024-02-14T11:00:48;12.20;;;6.10;;
47483;SDS011;54076;50.322;18.650;2024-02-14T11:05:50;13.60;;;5.30;;
47483;SDS011;54076;50.322;18.650;2024-02-14T11:10:55;14.30;;;5.80;;
47483;SDS011;54076;50.322;18.650;2024-02-14T11:16:00;12.20;;;5.70;;
47483;SDS011;54076;50.322;18.650;2024-02-14T11:21:15;11.30;;;5.60;;
47483;SDS011;54076;50.322;18.650;2024-02-14T11:26:17;10.40;;;4.90;;
47483;SDS011;54076;50.322;18.650;2024-02-14T11:31:18;10.90;;;5.30;;
47483;SDS011;54076;50.322;18.650;2024-02-14T11:36:19;11.70;;;5.00;;
47483;SDS011;54076;50.322;18.650;2024-02-14T11:41:20;10.70;;;4.40;;
47483;SDS011;54076;50.322;18.650;2024-02-14T11:46:21;11.80;;;5.30;;
47483;SDS011;54076;50.322;18.650;2024-02-14T11:51:23;13.90;;;6.00;;
47483;SDS011;54076;50.322;18.650;2024-02-14T11:56:24;11.70;;;4.90;;
47483;SDS011;54076;50.322;18.650;2024-02-14T12:01:26;13.50;;;5.30;;
47483;SDS011;54076;50.322;18.650;2024-02-14T12:06:29;15.20;;;5.90;;
47483;SDS011;54076;50.322;18.650;2024-02-14T12:11:32;14.20;;;6.20;;
47483;SDS011;54076;50.322;18.650;2024-02-14T12:16:34;12.30;;;5.60;;
47483;SDS011;54076;50.322;18.650;2024-02-14T12:21:38;11.10;;;4.80;;
47483;SDS011;54076;50.322;18.650;2024-02-14T12:26:41;12.00;;;5.10;;
47483;SDS011;54076;50.322;18.650;2024-02-14T12:31:42;13.00;;;5.40;;
47483;SDS011;54076;50.322;18.650;2024-02-14T12:36:47;9.20;;;4.90;;
47483;SDS011;54076;50.322;18.650;2024-02-14T12:41:48;23.50;;;10.80;;
47483;SDS011;54076;50.322;18.650;2024-02-14T12:46:49;14.00;;;5.50;;
47483;SDS011;54076;50.322;18.650;2024-02-14T12:51:50;11.90;;;5.40;;
47483;SDS011;54076;50.322;18.650;2024-02-14T12:56:52;12.50;;;5.50;;
47483;SDS011;54076;50.322;18.650;2024-02-14T13:01:53;11.40;;;5.10;;
47483;SDS011;54076;50.322;18.650;2024-02-14T13:06:54;12.80;;;5.60;;
47483;SDS011;54076;50.322;18.650;2024-02-14T13:11:55;11.50;;;5.60;;
47483;SDS011;54076;50.322;18.650;2024-02-14T13:16:56;17.20;;;6.00;;
47483;SDS011;54076;50.322;18.650;2024-02-14T13:21:56;12.50;;;6.50;;
47483;SDS011;54076;50.322;18.650;2024-02-14T13:26:58;11.30;;;5.00;;
47483;SDS011;54076;50.322;18.650;2024-02-14T13:31:58;13.70;;;5.20;;
47483;SDS011;54076;50.322;18.650;2024-02-14T13:37:01;12.30;;;5.20;;
47483;SDS011;54076;50.322;18.650;2024-02-14T13:42:03;11.00;;;5.60;;
47483;SDS011;54076;50.322;18.650;2024-02-14T13:47:04;9.60;;;4.40;;
47483;SDS011;54076;50.322;18.650;2024-02-14T13:52:05;11.10;;;4.50;;
47483;SDS011;54076;50.322;18.650;2024-02-14T13:57:06;10.90;;;5.60;;
47483;SDS011;54076;50.322;18.650;2024-02-14T14:02:07;10.80;;;5.10;;
47483;SDS011;54076;50.322;18.650;2024-02-14T14:07:10;9.80;;;4.20;;
47483;SDS011;54076;50.322;18.650;2024-02-14T14:12:11;9.50;;;4.40;;
47483;SDS011;54076;50.322;18.650;2024-02-14T14:17:11;14.40;;;4.90;;
47483;SDS011;54076;50.322;18.650;2024-02-14T14:22:12;10.20;;;4.80;;
47483;SDS011;54076;50.322;18.650;2024-02-14T14:27:15;22.40;;;8.30;;
47483;SDS011;54076;50.322;18.650;2024-02-14T14:32:16;14.90;;;6.60;;
47483;SDS011;54076;50.322;18.650;2024-02-14T14:37:17;11.30;;;5.30;;
47483;SDS011;54076;50.322;18.650;2024-02-14T14:42:18;12.30;;;5.50;;
47483;SDS011;54076;50.322;18.650;2024-02-14T14:47:19;12.80;;;5.00;;
47483;SDS011;54076;50.322;18.650;2024-02-14T14:52:20;13.80;;;5.70;;
47483;SDS011;54076;50.322;18.650;2024-02-14T14:57:20;12.30;;;5.40;;
47483;SDS011;54076;50.322;18.650;2024-02-14T15:02:22;12.30;;;6.00;;
47483;SDS011;54076;50.322;18.650;2024-02-14T15:07:23;16.30;;;5.90;;
47483;SDS011;54076;50.322;18.650;2024-02-14T15:12:24;15.20;;;6.20;;
47483;SDS011;54076;50.322;18.650;2024-02-14T15:17:27;12.60;;;5.60;;
47483;SDS011;54076;50.322;18.650;2024-02-14T15:22:30;14.60;;;5.90;;
47483;SDS011;54076;50.322;18.650;2024-02-14T15:27:31;23.60;;;7.00;;
47483;SDS011;54076;50.322;18.650;2024-02-14T15:32:33;18.60;;;7.40;;
47483;SDS011;54076;50.322;18.650;2024-02-14T15:37:52;15.30;;;6.50;;
47483;SDS011;54076;50.322;18.650;2024-02-14T15:42:54;15.00;;;6.90;;
47483;SDS011;54076;50.322;18.650;2024-02-14T15:47:55;16.10;;;5.90;;
47483;SDS011;54076;50.322;18.650;2024-02-14T15:52:58;19.60;;;6.40;;
47483;SDS011;54076;50.322;18.650;2024-02-14T15:57:59;14.80;;;6.60;;
47483;SDS011;54076;50.322;18.650;2024-02-14T16:03:00;13.90;;;6.10;;
47483;SDS011;54076;50.322;18.650;2024-02-14T16:08:02;14.10;;;6.60;;
47483;SDS011;54076;50.322;18.650;2024-02-14T16:13:03;14.90;;;6.60;;
47483;SDS011;54076;50.322;18.650;2024-02-14T16:18:05;17.20;;;7.20;;
47483;SDS011;54076;50.322;18.650;2024-02-14T16:23:06;19.90;;;7.80;;
47483;SDS011;54076;50.322;18.650;2024-02-14T16:28:07;19.40;;;7.60;;
47483;SDS011;54076;50.322;18.650;2024-02-14T16:33:08;17.20;;;7.30;;
47483;SDS011;54076;50.322;18.650;2024-02-14T16:38:09;16.90;;;6.90;;
47483;SDS011;54076;50.322;18.650;2024-02-14T16:43:10;17.50;;;7.90;;
47483;SDS011;54076;50.322;18.650;2024-02-14T16:48:10;17.60;;;7.60;;
47483;SDS011;54076;50.322;18.650;2024-02-14T16:53:11;19.60;;;8.10;;
47483;SDS011;54076;50.322;18.650;2024-02-14T16:58:12;16.00;;;7.70;;
47483;SDS011;54076;50.322;18.650;2024-02-14T17:03:13;18.50;;;8.40;;
47483;SDS011;54076;50.322;18.650;2024-02-14T17:08:14;18.40;;;8.40;;
47483;SDS011;54076;50.322;18.650;2024-02-14T17:13:15;27.30;;;9.20;;
47483;SDS011;54076;50.322;18.650;2024-02-14T17:18:17;18.60;;;8.40;;
47483;SDS011;54076;50.322;18.650;2024-02-14T17:23:18;18.20;;;8.70;;
47483;SDS011;54076;50.322;18.650;2024-02-14T17:28:20;18.30;;;8.20;;
47483;SDS011;54076;50.322;18.650;2024-02-14T17:33:21;18.80;;;7.60;;
47483;SDS011;54076;50.322;18.650;2024-02-14T17:38:22;19.20;;;8.90;;
47483;SDS011;54076;50.322;18.650;2024-02-14T17:43:23;23.00;;;9.80;;
47483;SDS011;54076;50.322;18.650;2024-02-14T17:48:24;23.60;;;9.70;;
47483;SDS011;54076;50.322;18.650;2024-02-14T17:53:26;23.80;;;9.90;;
47483;SDS011;54076;50.322;18.650;2024-02-14T17:58:28;25.40;;;10.00;;
47483;SDS011;54076;50.322;18.650;2024-02-14T18:03:31;22.50;;;10.60;;
47483;SDS011;54076;50.322;18.650;2024-02-14T18:08:31;24.20;;;10.60;;
47483;SDS011;54076;50.322;18.650;2024-02-14T18:13:32;27.80;;;11.00;;
47483;SDS011;54076;50.322;18.650;2024-02-14T18:18:33;24.30;;;10.70;;
47483;SDS011;54076;50.322;18.650;2024-02-14T18:23:36;23.70;;;11.10;;
47483;SDS011;54076;50.322;18.650;2024-02-14T18:28:38;25.60;;;10.90;;
47483;SDS011;54076;50.322;18.650;2024-02-14T18:33:39;26.40;;;11.20;;
47483;SDS011;54076;50.322;18.650;2024-02-14T18:38:41;26.80;;;11.30;;
47483;SDS011;54076;50.322;18.650;2024-02-14T18:43:42;29.70;;;12.00;;
47483;SDS011;54076;50.322;18.650;2024-02-14T18:48:43;34.60;;;11.90;;
47483;SDS011;54076;50.322;18.650;2024-02-14T18:53:43;26.10;;;11.10;;
47483;SDS011;54076;50.322;18.650;2024-02-14T18:58:47;26.30;;;10.20;;
47483;SDS011;54076;50.322;18.650;2024-02-14T19:03:48;25.60;;;9.90;;
47483;SDS011;54076;50.322;18.650;2024-02-14T19:08:51;22.90;;;10.60;;
47483;SDS011;54076;50.322;18.650;2024-02-14T19:13:52;25.10;;;10.20;;
47483;SDS011;54076;50.322;18.650;2024-02-14T19:18:54;26.60;;;10.90;;
47483;SDS011;54076;50.322;18.650;2024-02-14T19:23:55;28.60;;;11.50;;
47483;SDS011;54076;50.322;18.650;2024-02-14T19:28:56;25.80;;;10.60;;
47483;SDS011;54076;50.322;18.650;2024-02-14T19:33:57;25.10;;;10.30;;
47483;SDS011;54076;50.322;18.650;2024-02-14T19:38:58;24.60;;;9.40;;
47483;SDS011;54076;50.322;18.650;2024-02-14T19:43:59;23.40;;;9.60;;
47483;SDS011;54076;50.322;18.650;2024-02-14T19:49:00;19.80;;;8.30;;
47483;SDS011;54076;50.322;18.650;2024-02-14T19:54:01;19.90;;;8.90;;
47483;SDS011;54076;50.322;18.650;2024-02-14T19:59:02;22.10;;;8.50;;
47483;SDS011;54076;50.322;18.650;2024-02-14T20:04:03;22.30;;;8.90;;
47483;SDS011;54076;50.322;18.650;2024-02-14T20:09:04;23.00;;;8.60;;
47483;SDS011;54076;50.322;18.650;2024-02-14T20:14:07;20.20;;;8.40;;
47483;SDS011;54076;50.322;18.650;2024-02-14T20:19:09;21.10;;;9.00;;
47483;SDS011;54076;50.322;18.650;2024-02-14T20:24:10;23.30;;;9.80;;
47483;SDS011;54076;50.322;18.650;2024-02-14T20:29:11;23.90;;;9.60;;
47483;SDS011;54076;50.322;18.650;2024-02-14T20:34:12;24.40;;;10.00;;
47483;SDS011;54076;50.322;18.650;2024-02-14T20:39:14;22.80;;;9.40;;
47483;SDS011;54076;50.322;18.650;2024-02-14T20:44:16;23.40;;;10.10;;
47483;SDS011;54076;50.322;18.650;2024-02-14T20:49:18;24.60;;;9.50;;
47483;SDS011;54076;50.322;18.650;2024-02-14T20:54:19;18.70;;;8.60;;
47483;SDS011;54076;50.322;18.650;2024-02-14T20:59:20;16.70;;;7.90;;
47483;SDS011;54076;50.322;18.650;2024-02-14T21:04:21;20.30;;;8.10;;
47483;SDS011;54076;50.322;18.650;2024-02-14T21:09:22;19.20;;;8.20;;
47483;SDS011;54076;50.322;18.650;2024-02-14T21:14:23;20.40;;;8.50;;
47483;SDS011;54076;50.322;18.650;2024-02-14T21:19:24;20.80;;;8.50;;
47483;SDS011;54076;50.322;18.650;2024-02-14T21:24:24;16.40;;;7.70;;
47483;SDS011;54076;50.322;18.650;2024-02-14T21:29:25;20.90;;;8.70;;
47483;SDS011;54076;50.322;18.650;2024-02-14T21:34:26;20.80;;;8.60;;
47483;SDS011;54076;50.322;18.650;2024-02-14T21:39:27;19.00;;;8.40;;
47483;SDS011;54076;50.322;18.650;2024-02-14T21:44:28;22.40;;;9.10;;
47483;SDS011;54076;50.322;18.650;2024-02-14T21:49:31;17.60;;;8.20;;
47483;SDS011;54076;50.322;18.650;2024-02-14T21:54:33;17.80;;;8.10;;
47483;SDS011;54076;50.322;18.650;2024-02-14T21:59:35;16.70;;;8.30;;
47483;SDS011;54076;50.322;18.650;2024-02-14T22:04:35;24.80;;;8.30;;
47483;SDS011;54076;50.322;18.650;2024-02-14T22:09:36;19.70;;;8.80;;
47483;SDS011;54076;50.322;18.650;2024-02-14T22:14:38;22.60;;;8.50;;
47483;SDS011;54076;50.322;18.650;2024-02-14T22:19:39;17.40;;;8.30;;
47483;SDS011;54076;50.322;18.650;2024-02-14T22:24:40;23.70;;;8.50;;
47483;SDS011;54076;50.322;18.650;2024-02-14T22:29:41;20.00;;;8.50;;
47483;SDS011;54076;50.322;18.650;2024-02-14T22:34:42;22.00;;;9.20;;
47483;SDS011;54076;50.322;18.650;2024-02-14T22:39:43;22.10;;;9.20;;
47483;SDS011;54076;50.322;18.650;2024-02-14T22:44:44;20.80;;;8.90;;
47483;SDS011;54076;50.322;18.650;2024-02-14T22:49:45;17.80;;;8.60;;
47483;SDS011;54076;50.322;18.650;2024-02-14T22:54:46;21.80;;;8.40;;
47483;SDS011;54076;50.322;18.650;2024-02-14T22:59:47;20.50;;;8.20;;
47483;SDS011;54076;50.322;18.650;2024-02-14T23:04:49;18.10;;;8.00;;
47483;SDS011;54076;50.322;18.650;2024-02-14T23:09:51;16.90;;;8.10;;
47483;SDS011;54076;50.322;18.650;2024-02-14T23:14:52;18.40;;;7.80;;
47483;SDS011;54076;50.322;18.650;2024-02-14T23:19:52;19.40;;;8.50;;
47483;SDS011;54076;50.322;18.650;2024-02-14T23:24:53;18.00;;;7.80;;
47483;SDS011;54076;50.322;18.650;2024-02-14T23:29:55;17.30;;;8.50;;
47483;SDS011;54076;50.322;18.650;2024-02-14T23:34:56;18.30;;;8.70;;
47483;SDS011;54076;50.322;18.650;2024-02-14T23:39:57;25.70;;;9.40;;
47483;SDS011;54076;50.322;18.650;2024-02-14T23:44:59;21.30;;;8.90;;
47483;SDS011;54076;50.322;18.650;2024-02-14T23:50:01;20.20;;;9.00;;
47483;SDS011;54076;50.322;18.650;2024-02-14T23:55:03;21.70;;;9.60;;
